createdAt,value
2022-11-22T00:02:19.968Z,4.40
2022-11-22T00:07:23.863Z,4.50
2022-11-22T00:12:28.887Z,4.50
2022-11-22T00:17:33.473Z,4.50
2022-11-22T00:22:42.735Z,4.50
2022-11-22T00:27:49.092Z,4.50
2022-11-22T00:32:52.778Z,4.50
2022-11-22T00:37:56.410Z,4.60
2022-11-22T00:43:01.117Z,4.60
2022-11-22T00:48:04.696Z,4.60
2022-11-22T00:53:08.393Z,4.60
2022-11-22T00:58:13.191Z,4.60
2022-11-22T01:03:16.591Z,4.60
2022-11-22T01:08:20.281Z,4.60
2022-11-22T01:13:25.496Z,4.60
2022-11-22T01:18:29.630Z,4.60
2022-11-22T01:23:33.134Z,4.60
2022-11-22T01:28:38.282Z,4.60
2022-11-22T01:33:41.918Z,4.60
2022-11-22T01:38:45.592Z,4.50
2022-11-22T01:43:50.375Z,4.50
2022-11-22T01:48:57.934Z,4.50
2022-11-22T01:54:06.742Z,4.50
2022-11-22T01:59:18.012Z,4.40
2022-11-22T02:04:25.868Z,4.50
2022-11-22T02:09:30.244Z,4.50
2022-11-22T02:14:35.937Z,4.40
2022-11-22T02:19:43.766Z,4.40
2022-11-22T02:24:51.560Z,4.40
2022-11-22T02:29:56.650Z,4.30
2022-11-22T02:35:00.062Z,4.30
2022-11-22T02:40:08.816Z,4.20
2022-11-22T02:45:13.733Z,4.20
2022-11-22T02:50:17.142Z,4.10
2022-11-22T02:55:20.545Z,4.00
2022-11-22T03:00:25.485Z,4.00
2022-11-22T03:05:28.946Z,4.00
2022-11-22T03:10:32.707Z,4.00
2022-11-22T03:15:37.415Z,4.00
2022-11-22T03:20:40.888Z,4.10
2022-11-22T03:25:44.264Z,4.10
2022-11-22T03:30:49.042Z,4.10
2022-11-22T03:35:55.995Z,4.10
2022-11-22T03:40:59.364Z,4.10
2022-11-22T03:46:04.263Z,4.10
2022-11-22T03:51:08.310Z,4.20
2022-11-22T03:56:11.992Z,4.10
2022-11-22T04:01:17.106Z,4.00
2022-11-22T04:06:20.642Z,4.00
2022-11-22T04:11:24.308Z,4.00
2022-11-22T04:16:29.048Z,4.00
2022-11-22T04:21:35.544Z,4.00
2022-11-22T04:26:39.056Z,4.00
2022-11-22T04:32:13.514Z,4.00
2022-11-22T04:37:16.950Z,4.10
2022-11-22T04:42:46.424Z,4.00
2022-11-22T04:48:02.968Z,4.00
2022-11-22T04:53:06.367Z,4.00
2022-11-22T04:58:09.812Z,4.00
2022-11-22T05:03:14.692Z,4.00
2022-11-22T05:08:18.201Z,4.10
2022-11-22T05:13:24.804Z,4.10
2022-11-22T05:18:29.998Z,4.10
2022-11-22T05:23:51.341Z,4.20
2022-11-22T05:28:55.061Z,4.20
2022-11-22T05:33:59.779Z,4.20
2022-11-22T05:39:04.095Z,4.30
2022-11-22T05:44:07.843Z,4.20
2022-11-22T05:49:12.576Z,4.30
2022-11-22T05:54:15.971Z,4.30
2022-11-22T05:59:19.375Z,4.20
2022-11-22T06:04:24.437Z,4.30
2022-11-22T06:09:28.213Z,4.30
2022-11-22T06:14:31.871Z,4.30
2022-11-22T06:19:37.115Z,4.30
2022-11-22T06:24:40.541Z,4.30
2022-11-22T06:29:44.264Z,4.30
2022-11-22T06:34:49.052Z,4.40
2022-11-22T06:39:52.683Z,4.40
2022-11-22T06:44:56.376Z,4.30
2022-11-22T06:50:01.133Z,4.30
2022-11-22T06:55:08.169Z,4.30
2022-11-22T07:00:13.782Z,4.30
2022-11-22T07:05:25.616Z,4.30
2022-11-22T07:10:29.778Z,4.30
2022-11-22T07:15:33.253Z,4.30
2022-11-22T07:20:38.255Z,4.30
2022-11-22T07:25:45.087Z,4.30
2022-11-22T07:30:48.472Z,4.40
2022-11-22T07:35:53.454Z,4.40
2022-11-22T07:40:56.928Z,4.40
2022-11-22T07:46:00.674Z,4.50
2022-11-22T07:51:09.246Z,4.50
2022-11-22T07:56:12.699Z,4.60
2022-11-22T08:01:18.998Z,4.60
2022-11-22T08:06:23.927Z,4.60
2022-11-22T08:11:27.611Z,4.60
2022-11-22T08:16:31.023Z,4.70
2022-11-22T08:21:37.109Z,4.70
2022-11-22T08:26:40.592Z,4.80
2022-11-22T08:31:44.055Z,4.70
2022-11-22T08:36:48.818Z,4.70
2022-11-22T08:41:52.353Z,4.70
2022-11-22T08:46:55.844Z,4.80
2022-11-22T08:52:00.609Z,4.70
2022-11-22T08:57:04.010Z,4.80
2022-11-22T09:02:07.672Z,4.90
2022-11-22T09:12:35.817Z,4.90
2022-11-22T09:17:39.262Z,5.00
2022-11-22T09:22:44.104Z,5.00
2022-11-22T09:27:47.490Z,5.10
2022-11-22T09:32:50.839Z,5.00
2022-11-22T09:37:55.892Z,5.10
2022-11-22T09:43:13.219Z,5.10
2022-11-22T09:48:44.839Z,5.10
2022-11-22T09:53:55.229Z,5.10
2022-11-22T09:59:04.127Z,5.10
2022-11-22T10:04:11.734Z,5.10
2022-11-22T10:09:29.488Z,5.10
2022-11-22T10:14:45.380Z,5.20
2022-11-22T10:19:54.907Z,5.20
2022-11-22T10:25:00.585Z,5.20
2022-11-22T10:30:07.374Z,5.20
2022-11-22T10:35:24.611Z,5.20
2022-11-22T10:40:38.500Z,5.20
2022-11-22T10:45:44.965Z,5.20
2022-11-22T10:50:58.988Z,5.30
2022-11-22T10:56:09.154Z,5.30
2022-11-22T11:01:21.765Z,5.30
2022-11-22T11:06:56.831Z,5.30
2022-11-22T11:12:03.562Z,5.40
2022-11-22T11:17:07.956Z,5.40
2022-11-22T11:22:36.003Z,5.50
2022-11-22T11:27:46.022Z,5.50
2022-11-22T11:32:53.690Z,5.60
2022-11-22T11:37:57.597Z,5.60
2022-11-22T11:43:20.791Z,5.70
2022-11-22T11:48:29.498Z,5.70
2022-11-22T11:53:33.151Z,5.70
2022-11-22T11:58:38.164Z,5.80
2022-11-22T12:03:41.650Z,5.80
2022-11-22T12:08:45.113Z,5.90
2022-11-22T12:14:19.146Z,5.90
2022-11-22T12:19:26.028Z,5.90
2022-11-22T12:29:59.986Z,6.00
2022-11-22T12:35:08.232Z,6.00
2022-11-22T12:40:17.664Z,6.00
2022-11-22T12:45:28.105Z,6.10
2022-11-22T12:48:23.138Z,6.00
2022-11-22T12:50:38.703Z,6.10
2022-11-22T12:55:47.079Z,6.10
2022-11-22T13:01:06.788Z,6.10
2022-11-22T13:06:11.969Z,6.10
2022-11-22T13:11:20.459Z,6.20
2022-11-22T13:16:25.195Z,6.20
2022-11-22T13:21:35.168Z,6.20
2022-11-22T13:26:45.702Z,6.20
2022-11-22T13:32:05.500Z,6.30
2022-11-22T13:37:12.418Z,6.40
2022-11-22T13:42:20.276Z,6.40
2022-11-22T13:47:39.732Z,6.00
2022-11-22T13:52:54.143Z,5.20
2022-11-22T13:58:18.052Z,4.50
2022-11-22T14:03:40.143Z,4.10
2022-11-22T14:08:44.062Z,3.70
2022-11-22T14:13:57.168Z,3.50
2022-11-22T14:19:10.448Z,3.40
2022-11-22T14:24:33.576Z,3.50
2022-11-22T14:30:11.889Z,3.60
2022-11-22T14:35:29.624Z,3.90
2022-11-22T14:40:38.382Z,3.90
2022-11-22T14:45:46.690Z,4.10
2022-11-22T14:50:55.937Z,4.40
2022-11-22T14:56:05.810Z,4.60
2022-11-22T15:01:25.266Z,4.80
2022-11-22T15:09:23.704Z,5.00
2022-11-22T15:12:27.226Z,5.10
2022-11-22T16:01:19.094Z,5.90
2022-11-22T16:06:25.600Z,5.90
2022-11-22T16:11:33.976Z,5.90
2022-11-22T16:16:37.317Z,6.00
2022-11-22T16:21:40.748Z,6.10
2022-11-22T16:26:54.913Z,6.10
2022-11-22T16:32:02.822Z,6.10
2022-11-22T16:37:25.505Z,6.10
2022-11-22T16:42:30.391Z,6.10
2022-11-22T16:47:33.783Z,6.20
2022-11-22T16:52:37.506Z,6.20
2022-11-22T16:57:42.223Z,6.20
2022-11-22T17:02:45.703Z,6.30
2022-11-22T17:07:49.248Z,6.30
2022-11-22T17:12:54.413Z,6.30
2022-11-22T17:17:57.825Z,6.30
2022-11-22T17:23:01.328Z,6.40
2022-11-22T17:28:06.506Z,6.40
2022-11-22T17:33:12.430Z,6.40
2022-11-22T17:38:15.971Z,6.40
2022-11-22T17:43:20.888Z,6.50
2022-11-22T17:48:24.606Z,6.50
2022-11-22T17:53:28.242Z,6.50
2022-11-22T17:58:33.129Z,6.50
2022-11-22T18:03:36.590Z,6.50
2022-11-22T18:08:46.434Z,6.50
2022-11-22T18:13:51.933Z,6.50
2022-11-22T18:18:57.840Z,6.50
2022-11-22T18:24:02.695Z,6.50
2022-11-22T18:34:32.039Z,6.50
2022-11-22T18:39:37.983Z,6.50
2022-11-22T18:44:43.092Z,6.50
2022-11-22T18:49:47.790Z,6.50
2022-11-22T18:54:51.625Z,6.60
2022-11-22T18:59:56.419Z,6.60
2022-11-22T19:05:00.109Z,6.60
2022-11-22T19:10:04.190Z,6.60
2022-11-22T19:15:10.743Z,6.60
2022-11-22T19:20:39.392Z,6.50
2022-11-22T19:25:37.571Z,6.50
2022-11-22T19:30:44.442Z,6.50
2022-11-22T19:35:56.958Z,6.40
2022-11-22T19:41:00.449Z,6.40
2022-11-22T19:46:05.934Z,6.40
2022-11-22T19:51:10.975Z,6.30
2022-11-22T19:56:15.942Z,6.40
2022-11-22T20:01:22.055Z,6.30
2022-11-22T20:06:26.472Z,6.30
2022-11-22T20:11:30.041Z,6.30
2022-11-22T20:16:34.857Z,6.30
2022-11-22T20:21:39.241Z,6.30
2022-11-22T20:26:42.899Z,6.20
2022-11-22T20:31:48.192Z,6.20
2022-11-22T20:36:51.568Z,6.20
2022-11-22T20:42:18.539Z,6.20
2022-11-22T20:47:19.922Z,6.20
2022-11-22T20:52:23.294Z,6.20
2022-11-22T20:57:27.925Z,6.20
2022-11-22T21:02:34.582Z,6.20
2022-11-22T21:07:38.115Z,6.10
2022-11-22T21:12:41.561Z,6.10
2022-11-22T21:18:17.039Z,6.20
2022-11-22T21:23:09.804Z,6.10
2022-11-22T21:28:13.220Z,6.10
2022-11-22T21:33:17.985Z,6.10
2022-11-22T21:38:24.691Z,6.10
2022-11-22T21:43:33.377Z,6.10
2022-11-22T21:48:38.169Z,6.10
2022-11-22T21:53:41.592Z,6.00
2022-11-22T21:58:45.528Z,6.00
2022-11-22T22:03:50.318Z,6.00
2022-11-22T22:08:53.709Z,6.00
2022-11-22T22:13:58.914Z,6.00
2022-11-22T22:19:09.501Z,6.00
2022-11-22T22:24:13.179Z,6.00
2022-11-22T22:29:16.669Z,5.90
2022-11-22T22:34:21.418Z,5.90
2022-11-22T22:39:25.274Z,5.90
2022-11-22T22:44:28.977Z,5.90
2022-11-22T22:49:34.361Z,5.90
2022-11-22T22:54:38.040Z,5.90
2022-11-22T22:59:41.470Z,5.90
2022-11-22T23:04:46.199Z,5.90
2022-11-22T23:09:49.553Z,5.90
2022-11-22T23:14:53.027Z,5.90
2022-11-22T23:19:57.746Z,5.80
2022-11-22T23:25:01.322Z,5.80
2022-11-22T23:30:05.622Z,5.80
2022-11-22T23:35:11.055Z,5.80
2022-11-22T23:40:15.274Z,5.80
2022-11-22T23:45:18.643Z,5.80
2022-11-22T23:50:23.636Z,5.80
2022-11-22T23:55:27.079Z,5.80
